Mirai, Brazil
Current Conditions -  °F | °C
As of 7:00 PM on Friday 24 Oct 2014 (Local Time) from SBBQ Reporting Station
Scattered Clouds Scattered Clouds  
Wind Chill: 72°   Ceiling: Unl
Heat Index: 72°   Visibility: 6mi
Dew Point: 57°   Wind: 9mph
Humidity: 60%   Direction: 180°S
Pressure: 30.09"   Gusts: NA
Location:  21.2°S, 42.61°W
Report Text: SBBQ 242100Z 18008KT 9999 SCT040 FEW050TCU 22/14 Q1019
Loading
Personal Weather Stations






























Interactive Weather Map
Tropical Storm Tracking
New forecast layout! Learn more

10-Day Weather Forecast

Advertisements
Track Severe Weather on mobile